Time;durP1;ratioP1;P1;durP2;ratioP2;P2;SDS_P1;SDS_P2;PMS_P1;PMS_P2;Temp;Humidity;BMP_temperature;BMP_pressure;BME280_temperature;BME280_humidity;BME280_pressure;Samples;Min_cycle;Max_cycle;Signal;HPM_P1;HPM_P2
2021/06/28 00:01:06;;;;;;;;;;;18.30;99.90;;;;;;5035924;28;21342;-81
2021/06/28 00:03:32;;;;;;;;;;;18.30;99.90;;;;;;5034271;28;19921;-83
2021/06/28 00:05:57;;;;;;;;;;;18.30;99.90;;;;;;5034876;28;19925;-83
2021/06/28 00:08:23;;;;;;;;;;;18.30;99.90;;;;;;5018785;28;20308;-83
2021/06/28 00:10:49;;;;;;;;;;;18.40;99.90;;;;;;5036734;28;19917;-83
2021/06/28 00:13:14;;;;;;;;;;;18.40;99.90;;;;;;5034262;28;19925;-80
2021/06/28 00:15:40;;;;;;;;;;;18.40;99.90;;;;;;5035960;28;19917;-82
2021/06/28 00:18:06;;;;;;;;;;;18.40;99.90;;;;;;5034882;28;20198;-82
2021/06/28 00:20:33;;;;;;;;;;;18.30;99.90;;;;;;5027125;28;19917;-82
2021/06/28 00:22:59;;;;;;;;;;;18.30;99.90;;;;;;5010873;28;19974;-83
2021/06/28 00:25:24;;;;;;;;;;;18.40;99.90;;;;;;5018672;28;20012;-80
2021/06/28 00:27:50;;;;;;;;;;;18.40;99.90;;;;;;5033508;28;19925;-82
2021/06/28 00:30:17;;;;;;;;;;;18.40;99.90;;;;;;5033445;28;19909;-82
2021/06/28 00:32:43;;;;;;;;;;;18.50;99.90;;;;;;5033914;28;19924;-82
2021/06/28 00:35:09;;;;;;;;;;;18.50;99.90;;;;;;5033715;28;20228;-82
2021/06/28 00:37:35;;;;;;;;;;;18.50;99.90;;;;;;5017914;28;19921;-82
2021/06/28 00:40:01;;;;;;;;;;;18.40;99.90;;;;;;5034274;28;19913;-83
2021/06/28 00:42:27;;;;;;;;;;;18.50;99.90;;;;;;5033752;28;19909;-83
2021/06/28 00:44:53;;;;;;;;;;;18.50;99.90;;;;;;5017555;28;19924;-82
2021/06/28 00:47:19;;;;;;;;;;;18.50;99.90;;;;;;5034160;28;20301;-79
2021/06/28 00:49:45;;;;;;;;;;;18.50;99.90;;;;;;5034499;28;19913;-80
2021/06/28 00:52:10;;;;;;;;;;;18.50;99.90;;;;;;5034865;28;20338;-82
2021/06/28 00:54:37;;;;;;;;;;;18.50;99.90;;;;;;5034891;28;19916;-82
2021/06/28 00:57:03;;;;;;;;;;;18.50;99.90;;;;;;5033328;28;19921;-82
2021/06/28 00:59:28;;;;;;;;;;;18.50;99.90;;;;;;5034500;28;19975;-81
2021/06/28 01:01:54;;;;;;;;;;;18.50;99.90;;;;;;5035289;28;20007;-80
2021/06/28 01:04:20;;;;;;;;;;;18.50;99.90;;;;;;5034739;28;19913;-82
2021/06/28 01:06:46;;;;;;;;;;;18.40;99.90;;;;;;5034681;28;19924;-82
2021/06/28 01:09:11;;;;;;;;;;;18.40;99.90;;;;;;5033668;28;19913;-81
2021/06/28 01:11:37;;;;;;;;;;;18.40;99.90;;;;;;5033832;28;20011;-82
2021/06/28 01:14:03;;;;;;;;;;;18.40;99.90;;;;;;5033217;28;19964;-83
2021/06/28 01:16:29;;;;;;;;;;;18.40;99.90;;;;;;5034991;28;19944;-82
2021/06/28 01:18:54;;;;;;;;;;;18.40;99.90;;;;;;5033077;28;19980;-79
2021/06/28 01:21:20;;;;;;;;;;;18.40;99.90;;;;;;5033662;28;20308;-83
2021/06/28 01:23:46;;;;;;;;;;;18.30;99.90;;;;;;5032971;28;19913;-82
2021/06/28 01:26:12;;;;;;;;;;;18.40;99.90;;;;;;5034908;28;19913;-82
2021/06/28 01:28:38;;;;;;;;;;;18.30;99.90;;;;;;5033079;28;19977;-83
2021/06/28 01:31:05;;;;;;;;;;;18.30;99.90;;;;;;5030272;28;19986;-83
2021/06/28 01:33:31;;;;;;;;;;;18.40;99.90;;;;;;5004696;28;20220;-82
2021/06/28 01:35:57;;;;;;;;;;;18.40;99.90;;;;;;5033995;28;20328;-82
2021/06/28 01:38:22;;;;;;;;;;;18.30;99.90;;;;;;5032310;28;19921;-82
2021/06/28 01:40:48;;;;;;;;;;;18.30;99.90;;;;;;5034318;28;19921;-82
2021/06/28 01:43:14;;;;;;;;;;;18.40;99.90;;;;;;5029664;28;19921;-80
2021/06/28 01:45:40;;;;;;;;;;;18.40;99.90;;;;;;5033679;28;19914;-83
2021/06/28 01:48:06;;;;;;;;;;;18.40;99.90;;;;;;5032296;28;19964;-83
2021/06/28 01:50:36;;;;;;;;;;;18.40;99.90;;;;;;5032597;28;20188;-83
2021/06/28 01:53:03;;;;;;;;;;;18.40;99.90;;;;;;5034029;28;20290;-82
2021/06/28 01:55:28;;;;;;;;;;;18.30;99.90;;;;;;5032438;28;19917;-82
2021/06/28 01:57:58;;;;;;;;;;;18.30;99.90;;;;;;5021704;28;20033;-82
2021/06/28 02:00:28;;;;;;;;;;;18.30;99.90;;;;;;5029282;28;19924;-81
2021/06/28 02:03:02;;;;;;;;;;;18.30;99.90;;;;;;5033593;28;19944;-81
2021/06/28 02:05:28;;;;;;;;;;;18.30;99.90;;;;;;5026780;28;19913;-82
2021/06/28 02:07:54;;;;;;;;;;;18.20;99.90;;;;;;5033059;28;19928;-81
2021/06/28 02:10:20;;;;;;;;;;;18.20;99.90;;;;;;5034664;28;19913;-82
2021/06/28 02:12:46;;;;;;;;;;;18.20;99.90;;;;;;5033895;28;19952;-82
2021/06/28 02:15:18;;;;;;;;;;;18.20;99.90;;;;;;5027141;28;19910;-83
2021/06/28 02:17:45;;;;;;;;;;;18.10;99.90;;;;;;5018658;28;19925;-82
2021/06/28 02:20:11;;;;;;;;;;;18.10;99.90;;;;;;5013187;28;19921;-82
2021/06/28 02:22:37;;;;;;;;;;;18.10;99.90;;;;;;5032837;28;19962;-82
2021/06/28 02:25:05;;;;;;;;;;;18.10;99.90;;;;;;5032828;28;20366;-83
2021/06/28 02:27:30;;;;;;;;;;;18.00;99.90;;;;;;5032227;28;20031;-84
2021/06/28 02:29:56;;;;;;;;;;;17.90;99.90;;;;;;5016220;28;20304;-83
2021/06/28 02:32:21;;;;;;;;;;;17.90;99.90;;;;;;5032821;28;19982;-83
2021/06/28 02:34:47;;;;;;;;;;;17.90;99.90;;;;;;5015146;28;20311;-83
2021/06/28 02:37:12;;;;;;;;;;;17.90;99.90;;;;;;5019196;28;19920;-82
2021/06/28 02:39:38;;;;;;;;;;;17.80;99.90;;;;;;5031778;28;19913;-83
2021/06/28 02:42:03;;;;;;;;;;;17.80;99.90;;;;;;5032406;28;19917;-83
2021/06/28 02:44:29;;;;;;;;;;;17.80;99.90;;;;;;5031311;28;19960;-82
2021/06/28 02:46:54;;;;;;;;;;;17.80;99.90;;;;;;5021142;28;20011;-81
2021/06/28 02:49:20;;;;;;;;;;;17.80;99.90;;;;;;5027504;28;19921;-83
2021/06/28 02:51:46;;;;;;;;;;;17.80;99.90;;;;;;5031822;28;19917;-81
2021/06/28 02:54:11;;;;;;;;;;;17.80;99.90;;;;;;5017597;28;20004;-81
2021/06/28 02:56:37;;;;;;;;;;;17.70;99.90;;;;;;5034812;28;19925;-81
2021/06/28 02:59:02;;;;;;;;;;;17.70;99.90;;;;;;5018618;28;19917;-81
2021/06/28 03:01:28;;;;;;;;;;;17.70;99.90;;;;;;5019201;28;19928;-82
2021/06/28 03:03:54;;;;;;;;;;;17.70;99.90;;;;;;5036399;28;20020;-81
2021/06/28 03:06:20;;;;;;;;;;;17.70;99.90;;;;;;5034885;28;19967;-83
2021/06/28 03:08:46;;;;;;;;;;;17.60;99.90;;;;;;5033780;28;19947;-81
2021/06/28 03:11:12;;;;;;;;;;;17.60;99.90;;;;;;5036141;28;19917;-82
2021/06/28 03:13:38;;;;;;;;;;;17.60;99.90;;;;;;5036317;28;19920;-82
2021/06/28 03:16:04;;;;;;;;;;;17.50;99.90;;;;;;5034986;28;19920;-83
2021/06/28 03:18:31;;;;;;;;;;;17.50;99.90;;;;;;5036574;28;19919;-83
2021/06/28 03:20:56;;;;;;;;;;;17.50;99.90;;;;;;5036476;28;19917;-85
2021/06/28 03:23:22;;;;;;;;;;;17.50;99.90;;;;;;5035502;28;19921;-82
2021/06/28 03:25:48;;;;;;;;;;;17.50;99.90;;;;;;5034006;28;20011;-82
2021/06/28 03:28:13;;;;;;;;;;;17.50;99.90;;;;;;5032452;28;19971;-83
2021/06/28 03:30:39;;;;;;;;;;;17.40;99.90;;;;;;5018928;28;19909;-83
2021/06/28 03:33:05;;;;;;;;;;;17.40;99.90;;;;;;5016786;28;19917;-82
2021/06/28 03:35:32;;;;;;;;;;;17.40;99.90;;;;;;5036361;28;20300;-82
2021/06/28 03:37:57;;;;;;;;;;;17.30;99.90;;;;;;5035372;28;19928;-82
2021/06/28 03:40:23;;;;;;;;;;;17.30;99.90;;;;;;5018134;28;19909;-82
2021/06/28 03:42:49;;;;;;;;;;;17.30;99.90;;;;;;5036257;28;19909;-82
2021/06/28 03:45:15;;;;;;;;;;;17.40;99.90;;;;;;5015798;28;19913;-81
2021/06/28 03:47:41;;;;;;;;;;;17.30;99.90;;;;;;5035928;28;19921;-82
2021/06/28 03:50:07;;;;;;;;;;;17.30;99.90;;;;;;5035986;28;19913;-83
2021/06/28 03:52:33;;;;;;;;;;;17.30;99.90;;;;;;5032489;28;20367;-83
2021/06/28 03:54:58;;;;;;;;;;;17.30;99.90;;;;;;5031540;28;20011;-81
2021/06/28 03:57:24;;;;;;;;;;;17.30;99.90;;;;;;5036468;28;20378;-82
2021/06/28 03:59:49;;;;;;;;;;;17.30;99.90;;;;;;5035005;28;19923;-83
2021/06/28 04:02:15;;;;;;;;;;;17.20;99.90;;;;;;5036272;28;19913;-82
2021/06/28 04:04:47;;;;;;;;;;;17.20;99.90;;;;;;5017425;28;19917;-82
2021/06/28 04:07:13;;;;;;;;;;;17.20;99.90;;;;;;5034884;28;19932;-82
2021/06/28 04:09:39;;;;;;;;;;;17.20;99.90;;;;;;5035300;28;19913;-84
2021/06/28 04:12:04;;;;;;;;;;;17.20;99.90;;;;;;5043289;28;19917;-83
2021/06/28 04:14:30;;;;;;;;;;;17.20;99.90;;;;;;5046786;28;19967;-84
2021/06/28 04:16:55;;;;;;;;;;;17.20;99.90;;;;;;5040838;28;19916;-83
2021/06/28 04:19:21;;;;;;;;;;;17.20;99.90;;;;;;5019233;28;20335;-84
2021/06/28 04:21:46;;;;;;;;;;;17.20;99.90;;;;;;5018829;28;20224;-85
2021/06/28 04:24:12;;;;;;;;;;;17.20;99.90;;;;;;5035023;28;19920;-83
2021/06/28 04:26:37;;;;;;;;;;;17.20;99.90;;;;;;5034838;28;19924;-82
2021/06/28 04:29:03;;;;;;;;;;;17.10;99.90;;;;;;5034181;28;19921;-83
2021/06/28 04:31:29;;;;;;;;;;;17.20;99.90;;;;;;5035133;28;20063;-83
2021/06/28 04:33:54;;;;;;;;;;;17.20;99.90;;;;;;5024579;28;19928;-82
2021/06/28 04:36:20;;;;;;;;;;;17.20;99.90;;;;;;5012905;28;19940;-82
2021/06/28 04:38:46;;;;;;;;;;;17.20;99.90;;;;;;5034043;28;19928;-83
2021/06/28 04:41:11;;;;;;;;;;;17.30;99.90;;;;;;5035058;28;20374;-85
2021/06/28 04:43:37;;;;;;;;;;;17.30;99.90;;;;;;5035302;28;19921;-83
2021/06/28 04:46:02;;;;;;;;;;;17.40;99.90;;;;;;5026856;28;19944;-82
2021/06/28 04:48:28;;;;;;;;;;;17.40;99.90;;;;;;5018457;28;19967;-84
2021/06/28 04:50:53;;;;;;;;;;;17.40;99.90;;;;;;5024514;28;20004;-84
2021/06/28 04:53:19;;;;;;;;;;;17.50;99.90;;;;;;5014723;28;19921;-83
2021/06/28 04:55:45;;;;;;;;;;;17.60;99.90;;;;;;5034108;28;19921;-82
2021/06/28 04:58:10;;;;;;;;;;;17.60;99.90;;;;;;5017388;28;19923;-85
2021/06/28 05:00:36;;;;;;;;;;;17.60;99.90;;;;;;5035625;28;19913;-83
2021/06/28 05:03:03;;;;;;;;;;;17.70;99.90;;;;;;5035911;28;20263;-84
2021/06/28 05:05:28;;;;;;;;;;;17.70;99.90;;;;;;5034251;28;19949;-83
2021/06/28 05:07:55;;;;;;;;;;;17.80;99.90;;;;;;5033534;28;20031;-83
2021/06/28 05:10:21;;;;;;;;;;;17.80;99.90;;;;;;5031667;28;19996;-82
2021/06/28 05:12:47;;;;;;;;;;;17.90;99.90;;;;;;5033778;28;20020;-81
2021/06/28 05:15:13;;;;;;;;;;;17.90;99.90;;;;;;5015435;28;19917;-81
2021/06/28 05:17:39;;;;;;;;;;;18.00;99.90;;;;;;5033412;28;19913;-82
2021/06/28 05:20:05;;;;;;;;;;;18.10;99.90;;;;;;5034388;28;20354;-81
2021/06/28 05:22:31;;;;;;;;;;;18.10;99.90;;;;;;5032675;28;19917;-82
2021/06/28 05:24:57;;;;;;;;;;;18.20;99.90;;;;;;5023117;28;19959;-82
2021/06/28 05:27:22;;;;;;;;;;;18.30;99.90;;;;;;5033380;28;19917;-82
2021/06/28 05:29:54;;;;;;;;;;;18.30;99.90;;;;;;5032799;28;19983;-82
2021/06/28 05:32:21;;;;;;;;;;;18.30;99.90;;;;;;5029996;28;20037;-82
2021/06/28 05:34:46;;;;;;;;;;;18.30;99.90;;;;;;5020390;28;20213;-82
2021/06/28 05:37:12;;;;;;;;;;;18.40;99.90;;;;;;5031769;28;19913;-82
2021/06/28 05:39:37;;;;;;;;;;;18.50;99.90;;;;;;5032241;28;20217;-81
2021/06/28 05:42:03;;;;;;;;;;;18.50;99.90;;;;;;5033055;28;20274;-80
2021/06/28 05:44:29;;;;;;;;;;;18.50;99.90;;;;;;5032051;28;20296;-82
2021/06/28 05:46:54;;;;;;;;;;;18.50;99.90;;;;;;5014705;28;19917;-83
2021/06/28 05:49:20;;;;;;;;;;;18.50;99.90;;;;;;5021491;28;19921;-80
2021/06/28 05:51:45;;;;;;;;;;;18.50;99.90;;;;;;5032121;28;19924;-81
2021/06/28 05:54:11;;;;;;;;;;;18.50;99.90;;;;;;5029219;28;19963;-81
2021/06/28 05:56:36;;;;;;;;;;;18.50;99.90;;;;;;5031835;28;20235;-82
2021/06/28 05:59:02;;;;;;;;;;;18.50;99.90;;;;;;5032430;28;20198;-82
2021/06/28 06:01:28;;;;;;;;;;;18.50;99.90;;;;;;5030220;28;19913;-82
2021/06/28 06:03:53;;;;;;;;;;;18.50;99.90;;;;;;5033962;28;20296;-83
2021/06/28 06:06:19;;;;;;;;;;;18.60;99.90;;;;;;5033272;28;20315;-82
2021/06/28 06:08:44;;;;;;;;;;;18.60;99.90;;;;;;5033930;28;19932;-82
2021/06/28 06:11:10;;;;;;;;;;;18.60;99.90;;;;;;5013558;28;20339;-81
2021/06/28 06:13:35;;;;;;;;;;;18.70;99.90;;;;;;5012596;28;19995;-82
2021/06/28 06:16:01;;;;;;;;;;;18.70;99.90;;;;;;5033554;28;19920;-83
2021/06/28 06:18:26;;;;;;;;;;;18.80;99.90;;;;;;5022425;28;20001;-82
2021/06/28 06:20:52;;;;;;;;;;;18.80;99.90;;;;;;5016147;28;19913;-81
2021/06/28 06:23:18;;;;;;;;;;;18.90;99.90;;;;;;5016728;28;20004;-81
2021/06/28 06:25:44;;;;;;;;;;;19.00;99.90;;;;;;5037163;28;19909;-81
2021/06/28 06:28:09;;;;;;;;;;;19.00;99.90;;;;;;5035973;28;19913;-81
2021/06/28 06:30:35;;;;;;;;;;;19.10;99.90;;;;;;5036703;28;19939;-82
2021/06/28 06:33:01;;;;;;;;;;;19.20;99.90;;;;;;5037538;28;19960;-84
2021/06/28 06:35:27;;;;;;;;;;;19.10;99.90;;;;;;5036976;28;19997;-83
2021/06/28 06:37:54;;;;;;;;;;;19.20;99.90;;;;;;5019703;28;20008;-81
2021/06/28 06:40:20;;;;;;;;;;;19.20;99.90;;;;;;5017225;28;20290;-83
2021/06/28 06:42:46;;;;;;;;;;;19.20;99.90;;;;;;5034825;28;19917;-82
2021/06/28 06:45:12;;;;;;;;;;;19.30;99.90;;;;;;5036054;28;19921;-83
2021/06/28 06:47:37;;;;;;;;;;;19.40;99.90;;;;;;5013083;28;20007;-83
2021/06/28 06:50:03;;;;;;;;;;;19.40;99.90;;;;;;5013288;28;20000;-84
2021/06/28 06:52:29;;;;;;;;;;;19.40;99.90;;;;;;5015895;28;19921;-83
2021/06/28 06:54:54;;;;;;;;;;;19.50;99.90;;;;;;5036121;28;20020;-82
2021/06/28 06:57:20;;;;;;;;;;;19.60;99.90;;;;;;5023468;28;19960;-82
2021/06/28 06:59:45;;;;;;;;;;;19.70;99.90;;;;;;5037480;28;19913;-81
2021/06/28 07:02:11;;;;;;;;;;;19.80;99.90;;;;;;5019700;28;19913;-82
2021/06/28 07:04:38;;;;;;;;;;;19.80;99.90;;;;;;5037760;28;19909;-82
2021/06/28 07:07:04;;;;;;;;;;;19.80;99.90;;;;;;5037248;28;19909;-84
2021/06/28 07:09:29;;;;;;;;;;;19.90;99.90;;;;;;5035971;28;19921;-81
2021/06/28 07:11:55;;;;;;;;;;;20.00;99.90;;;;;;5036669;28;19917;-84
2021/06/28 07:14:21;;;;;;;;;;;20.00;99.90;;;;;;5035111;28;19913;-81
2021/06/28 07:16:47;;;;;;;;;;;20.00;99.90;;;;;;5035838;28;19921;-82
2021/06/28 07:19:13;;;;;;;;;;;20.10;99.90;;;;;;5035510;28;19924;-81
2021/06/28 07:21:38;;;;;;;;;;;20.20;99.90;;;;;;5034891;28;19913;-82
2021/06/28 07:24:04;;;;;;;;;;;20.20;99.90;;;;;;5037200;28;19927;-81
2021/06/28 07:26:30;;;;;;;;;;;20.20;99.90;;;;;;5032842;28;20304;-81
2021/06/28 07:28:57;;;;;;;;;;;20.30;99.90;;;;;;5036083;28;20320;-81
2021/06/28 07:31:23;;;;;;;;;;;20.30;99.90;;;;;;5019127;28;19917;-81
2021/06/28 07:33:49;;;;;;;;;;;20.30;99.90;;;;;;5035945;28;19917;-81
2021/06/28 07:36:14;;;;;;;;;;;20.30;99.90;;;;;;5034317;28;19920;-79
2021/06/28 07:38:40;;;;;;;;;;;20.30;99.90;;;;;;5036838;28;19920;-81
2021/06/28 07:41:06;;;;;;;;;;;20.40;99.90;;;;;;5035116;28;19923;-82
2021/06/28 07:43:32;;;;;;;;;;;20.50;99.90;;;;;;5017430;28;19919;-81
2021/06/28 07:45:57;;;;;;;;;;;20.50;99.90;;;;;;5034836;28;19917;-81
2021/06/28 07:48:23;;;;;;;;;;;20.60;99.90;;;;;;5034516;28;20662;-80
2021/06/28 07:50:48;;;;;;;;;;;20.70;99.90;;;;;;5035018;28;19924;-80
2021/06/28 07:53:14;;;;;;;;;;;20.70;99.90;;;;;;5035516;28;19924;-80
2021/06/28 07:55:40;;;;;;;;;;;20.80;99.90;;;;;;5030087;28;19921;-80
2021/06/28 07:58:06;;;;;;;;;;;20.90;99.90;;;;;;5034905;28;19913;-82
2021/06/28 08:00:33;;;;;;;;;;;20.90;99.90;;;;;;5016090;28;19983;-80
2021/06/28 08:02:59;;;;;;;;;;;21.00;99.90;;;;;;5036263;28;20012;-80
2021/06/28 08:05:24;;;;;;;;;;;21.20;99.90;;;;;;5012417;28;20012;-81
2021/06/28 08:07:50;;;;;;;;;;;21.20;99.90;;;;;;5018616;28;19925;-80
2021/06/28 08:10:16;;;;;;;;;;;21.20;99.90;;;;;;5017325;28;19921;-80
2021/06/28 08:12:42;;;;;;;;;;;21.40;99.90;;;;;;5032085;28;20224;-81
2021/06/28 08:15:08;;;;;;;;;;;21.40;99.90;;;;;;5028664;28;19921;-80
2021/06/28 08:17:34;;;;;;;;;;;21.50;99.90;;;;;;5034303;28;19913;-81
2021/06/28 08:20:00;;;;;;;;;;;21.50;99.90;;;;;;5034405;28;19924;-81
2021/06/28 08:22:26;;;;;;;;;;;21.40;99.90;;;;;;5016979;28;19917;-80
2021/06/28 08:24:51;;;;;;;;;;;21.50;99.90;;;;;;5037854;28;20319;-79
2021/06/28 08:27:17;;;;;;;;;;;21.50;99.90;;;;;;5035114;28;19996;-81
2021/06/28 08:29:43;;;;;;;;;;;21.70;99.90;;;;;;5021828;28;19920;-81
2021/06/28 08:32:09;;;;;;;;;;;21.80;99.90;;;;;;5037102;28;19913;-80
2021/06/28 08:34:35;;;;;;;;;;;21.80;99.90;;;;;;5034001;28;19924;-81
2021/06/28 08:37:00;;;;;;;;;;;22.00;99.90;;;;;;5026133;28;19916;-80
2021/06/28 08:39:28;;;;;;;;;;;22.10;99.90;;;;;;5037442;28;20018;-80
2021/06/28 08:41:55;;;;;;;;;;;22.20;99.90;;;;;;5035738;28;19910;-82
2021/06/28 08:44:21;;;;;;;;;;;22.30;99.90;;;;;;5017947;28;20183;-80
2021/06/28 08:46:47;;;;;;;;;;;22.20;99.90;;;;;;5034846;28;19913;-81
2021/06/28 08:49:13;;;;;;;;;;;22.30;99.90;;;;;;5035426;28;19963;-81
2021/06/28 08:51:39;;;;;;;;;;;22.40;99.90;;;;;;5032132;28;19911;-81
2021/06/28 08:54:08;;;;;;;;;;;22.40;99.90;;;;;;5024948;28;19917;-80
2021/06/28 08:56:34;;;;;;;;;;;22.60;99.90;;;;;;5036832;28;20338;-80
2021/06/28 08:59:02;;;;;;;;;;;22.60;99.90;;;;;;5038817;28;19917;-80
2021/06/28 09:01:27;;;;;;;;;;;22.60;99.90;;;;;;5036969;28;20308;-81
2021/06/28 09:03:53;;;;;;;;;;;22.80;99.90;;;;;;5009123;28;19920;-79
2021/06/28 09:06:25;;;;;;;;;;;23.00;99.90;;;;;;5042395;28;19913;-80
2021/06/28 09:08:59;;;;;;;;;;;23.20;99.90;;;;;;5039117;28;19979;-82
2021/06/28 09:11:25;;;;;;;;;;;23.20;99.90;;;;;;5036816;28;19953;-80
2021/06/28 09:13:53;;;;;;;;;;;23.10;99.90;;;;;;5035857;28;20004;-81
2021/06/28 09:16:22;;;;;;;;;;;23.20;99.90;;;;;;5041300;28;20215;-82
2021/06/28 09:18:48;;;;;;;;;;;23.20;99.90;;;;;;5018618;28;20201;-83
2021/06/28 09:21:15;;;;;;;;;;;23.20;99.90;;;;;;5035007;28;20008;-84
2021/06/28 09:23:41;;;;;;;;;;;23.10;99.90;;;;;;5007241;28;19913;-81
2021/06/28 09:26:14;;;;;;;;;;;23.00;99.90;;;;;;5033425;28;19919;-82
2021/06/28 09:28:41;;;;;;;;;;;23.20;99.90;;;;;;5027977;28;19921;-82
2021/06/28 09:31:31;;;;;;;;;;;23.30;99.90;;;;;;5033881;28;20318;-81
2021/06/28 09:34:13;;;;;;;;;;;23.40;99.90;;;;;;5010278;28;19968;-82
2021/06/28 09:36:43;;;;;;;;;;;23.40;99.90;;;;;;5034289;28;19919;-83
2021/06/28 09:39:19;;;;;;;;;;;23.50;99.90;;;;;;5009093;28;19914;-81
2021/06/28 09:41:45;;;;;;;;;;;23.60;99.90;;;;;;5030544;28;19913;-81
2021/06/28 09:44:10;;;;;;;;;;;23.40;99.90;;;;;;5016433;28;19913;-81
2021/06/28 09:46:37;;;;;;;;;;;23.40;99.90;;;;;;5033592;28;19909;-81
2021/06/28 09:49:03;;;;;;;;;;;23.70;99.90;;;;;;5034950;28;19924;-83
2021/06/28 09:51:30;;;;;;;;;;;23.60;99.90;;;;;;5014853;28;20273;-82
2021/06/28 09:54:08;;;;;;;;;;;23.50;99.90;;;;;;5032577;28;19917;-81
2021/06/28 09:56:41;;;;;;;;;;;23.70;99.90;;;;;;5032735;28;19917;-87
2021/06/28 09:59:25;;;;;;;;;;;23.90;99.90;;;;;;5034473;28;19909;-85
2021/06/28 10:02:08;;;;;;;;;;;23.80;99.90;;;;;;5033365;28;19909;-84
2021/06/28 10:04:41;;;;;;;;;;;23.90;99.90;;;;;;5033463;28;19913;-84
2021/06/28 10:07:23;;;;;;;;;;;24.10;99.90;;;;;;5016567;28;19953;-85
2021/06/28 10:10:07;;;;;;;;;;;24.10;99.90;;;;;;5033837;28;19913;-87
2021/06/28 10:12:33;;;;;;;;;;;24.10;99.90;;;;;;5023383;28;19913;-86
2021/06/28 10:14:59;;;;;;;;;;;23.80;99.90;;;;;;5033839;28;19958;-86
2021/06/28 10:17:25;;;;;;;;;;;23.50;99.90;;;;;;5034937;28;19960;-84
2021/06/28 10:19:51;;;;;;;;;;;23.40;99.90;;;;;;5034074;28;20228;-84
2021/06/28 10:22:17;;;;;;;;;;;23.30;99.90;;;;;;5033575;28;19992;-85
2021/06/28 10:24:42;;;;;;;;;;;23.40;99.90;;;;;;5034134;28;19989;-84
2021/06/28 10:27:08;;;;;;;;;;;23.30;99.90;;;;;;5035080;28;19964;-86
2021/06/28 10:29:34;;;;;;;;;;;23.30;99.90;;;;;;5034482;28;19913;-84
2021/06/28 10:32:10;;;;;;;;;;;23.20;99.90;;;;;;5035241;28;19909;-85
2021/06/28 10:34:38;;;;;;;;;;;23.00;99.90;;;;;;5034598;28;19909;-83
2021/06/28 10:37:23;;;;;;;;;;;23.00;99.90;;;;;;5021174;28;20292;-84
2021/06/28 10:39:56;;;;;;;;;;;22.80;99.90;;;;;;5030707;28;19916;-86
2021/06/28 10:42:31;;;;;;;;;;;22.60;99.90;;;;;;5034862;28;19932;-82
2021/06/28 10:44:57;;;;;;;;;;;22.40;99.90;;;;;;5021630;28;19913;-86
2021/06/28 10:47:22;;;;;;;;;;;22.20;99.90;;;;;;5033648;28;19921;-81
2021/06/28 10:49:52;;;;;;;;;;;22.10;99.90;;;;;;5023275;28;19920;-86
2021/06/28 10:52:36;;;;;;;;;;;22.00;99.90;;;;;;5017783;28;19916;-84
2021/06/28 10:55:21;;;;;;;;;;;21.90;99.90;;;;;;5021313;28;20227;-84
2021/06/28 10:57:48;;;;;;;;;;;21.80;99.90;;;;;;5030434;28;20212;-84
2021/06/28 11:00:15;;;;;;;;;;;21.90;99.90;;;;;;5035660;28;19917;-85
2021/06/28 11:02:41;;;;;;;;;;;21.70;99.90;;;;;;5033931;28;20316;-84
2021/06/28 11:05:08;;;;;;;;;;;21.60;99.90;;;;;;5017323;28;20015;-87
2021/06/28 11:07:44;;;;;;;;;;;21.70;99.90;;;;;;5032952;28;19980;-85
2021/06/28 11:10:29;;;;;;;;;;;21.60;99.90;;;;;;5016237;28;19971;-84
2021/06/28 11:13:14;;;;;;;;;;;21.70;99.90;;;;;;5038204;28;19920;-87
2021/06/28 11:15:40;;;;;;;;;;;21.60;99.90;;;;;;5033884;28;19917;-83
2021/06/28 11:18:05;;;;;;;;;;;21.60;99.90;;;;;;5033585;28;19917;-79
2021/06/28 11:20:38;;;;;;;;;;;21.50;99.90;;;;;;5022847;28;19932;-85
2021/06/28 11:23:06;;;;;;;;;;;21.60;99.90;;;;;;5031130;28;19913;-86
2021/06/28 11:25:50;;;;;;;;;;;21.50;99.90;;;;;;5015668;28;19913;-85
2021/06/28 11:28:18;;;;;;;;;;;21.40;99.90;;;;;;5038796;28;19959;-79
2021/06/28 11:30:48;;;;;;;;;;;21.40;99.90;;;;;;5039372;28;19916;-86
2021/06/28 11:33:14;;;;;;;;;;;21.40;99.90;;;;;;5037126;28;19947;-83
2021/06/28 11:35:42;;;;;;;;;;;21.40;99.90;;;;;;5036730;28;19956;-86
2021/06/28 11:38:12;;;;;;;;;;;21.40;99.90;;;;;;5035613;28;19914;-85
2021/06/28 11:40:38;;;;;;;;;;;21.40;99.90;;;;;;5036861;28;19928;-86
2021/06/28 11:43:04;;;;;;;;;;;21.50;99.90;;;;;;5038975;28;19909;-87
2021/06/28 11:45:45;;;;;;;;;;;21.50;99.90;;;;;;5035967;28;20216;-84
2021/06/28 11:48:12;;;;;;;;;;;21.50;99.90;;;;;;5016494;28;19986;-85
2021/06/28 11:50:38;;;;;;;;;;;21.50;99.90;;;;;;5036028;28;20315;-85
2021/06/28 11:53:09;;;;;;;;;;;21.50;99.90;;;;;;5024678;28;20201;-84
2021/06/28 11:55:35;;;;;;;;;;;21.50;99.90;;;;;;5026705;28;19921;-85
2021/06/28 11:58:01;;;;;;;;;;;21.50;99.90;;;;;;5032915;28;19917;-85
2021/06/28 12:00:27;;;;;;;;;;;21.50;99.90;;;;;;5018935;28;20331;-85
2021/06/28 12:03:09;;;;;;;;;;;21.50;99.90;;;;;;5032711;28;19948;-84
2021/06/28 12:05:35;;;;;;;;;;;21.50;99.90;;;;;;5035099;28;19913;-86
2021/06/28 12:08:00;;;;;;;;;;;21.50;99.90;;;;;;5041637;28;19917;-86
2021/06/28 12:10:26;;;;;;;;;;;21.50;99.90;;;;;;5036575;28;19967;-85
2021/06/28 12:12:56;;;;;;;;;;;21.60;99.90;;;;;;5019658;28;21386;-85
2021/06/28 12:15:23;;;;;;;;;;;21.60;99.90;;;;;;5033457;28;20224;-86
2021/06/28 12:17:49;;;;;;;;;;;21.50;99.90;;;;;;5038122;28;19920;-86
2021/06/28 12:20:18;;;;;;;;;;;21.50;99.90;;;;;;5035044;28;19917;-87
2021/06/28 12:22:44;;;;;;;;;;;21.50;99.90;;;;;;5031264;28;20205;-85
2021/06/28 12:25:15;;;;;;;;;;;21.60;99.90;;;;;;5020296;28;19917;-85
2021/06/28 12:27:41;;;;;;;;;;;21.60;99.90;;;;;;5029514;28;19917;-85
2021/06/28 12:30:08;;;;;;;;;;;21.60;99.90;;;;;;5044658;28;19920;-85
2021/06/28 12:32:35;;;;;;;;;;;21.60;99.90;;;;;;5037488;28;19920;-85
2021/06/28 12:35:02;;;;;;;;;;;21.60;99.90;;;;;;5032794;28;20042;-84
2021/06/28 12:37:28;;;;;;;;;;;21.60;99.90;;;;;;5031775;28;19917;-86
2021/06/28 12:40:08;;;;;;;;;;;21.50;99.90;;;;;;5016970;28;19983;-85
2021/06/28 12:42:38;;;;;;;;;;;21.50;99.90;;;;;;5035347;28;19983;-84
2021/06/28 12:45:04;;;;;;;;;;;21.50;99.90;;;;;;5019336;28;19940;-87
2021/06/28 12:47:29;;;;;;;;;;;21.50;99.90;;;;;;5038204;28;20304;-86
2021/06/28 12:49:55;;;;;;;;;;;21.50;99.90;;;;;;5017214;28;19921;-79
2021/06/28 12:52:27;;;;;;;;;;;21.50;99.90;;;;;;5030632;28;19992;-84
2021/06/28 12:55:02;;;;;;;;;;;21.50;99.90;;;;;;5034573;28;19967;-86
2021/06/28 12:57:29;;;;;;;;;;;21.50;99.90;;;;;;5038355;28;19924;-82
2021/06/28 12:59:54;;;;;;;;;;;21.50;99.90;;;;;;5035128;28;19909;-85
2021/06/28 13:02:34;;;;;;;;;;;21.50;99.90;;;;;;5037450;28;19981;-84
2021/06/28 13:05:07;;;;;;;;;;;21.60;99.90;;;;;;5040356;28;19913;-86
2021/06/28 13:07:32;;;;;;;;;;;21.70;99.90;;;;;;5038531;28;20008;-84
2021/06/28 13:09:58;;;;;;;;;;;21.70;99.90;;;;;;5035676;28;20279;-84
2021/06/28 13:12:28;;;;;;;;;;;21.70;99.90;;;;;;5019334;28;19909;-84
2021/06/28 13:15:15;;;;;;;;;;;21.70;99.90;;;;;;5039077;28;19908;-85
2021/06/28 13:17:40;;;;;;;;;;;21.70;99.90;;;;;;5017292;28;19920;-81
2021/06/28 13:20:19;;;;;;;;;;;21.70;99.90;;;;;;5021155;28;19913;-85
2021/06/28 13:22:46;;;;;;;;;;;21.70;99.90;;;;;;5018384;28;19918;-80
2021/06/28 13:25:19;;;;;;;;;;;21.70;99.90;;;;;;5022350;28;19910;-84
2021/06/28 13:27:45;;;;;;;;;;;21.80;99.90;;;;;;5034925;28;19920;-86
2021/06/28 13:30:21;;;;;;;;;;;21.70;99.90;;;;;;5037002;28;19923;-84
2021/06/28 13:32:47;;;;;;;;;;;21.80;99.90;;;;;;5036561;28;19972;-83
2021/06/28 13:35:27;;;;;;;;;;;21.80;99.90;;;;;;5033763;28;19916;-87
2021/06/28 13:38:09;;;;;;;;;;;21.70;99.90;;;;;;5036201;28;20019;-83
2021/06/28 13:40:35;;;;;;;;;;;21.70;99.90;;;;;;5035180;28;19924;-84
2021/06/28 13:43:01;;;;;;;;;;;21.60;99.90;;;;;;5039456;28;19909;-85
2021/06/28 13:45:28;;;;;;;;;;;21.60;99.90;;;;;;5034272;28;19931;-81
2021/06/28 13:48:01;;;;;;;;;;;21.60;99.90;;;;;;5035611;28;19921;-84
2021/06/28 13:50:27;;;;;;;;;;;21.60;99.90;;;;;;5033390;28;19909;-83
2021/06/28 13:52:53;;;;;;;;;;;21.60;99.90;;;;;;5036769;28;19970;-84
2021/06/28 13:55:19;;;;;;;;;;;21.60;99.90;;;;;;5029214;28;19940;-85
2021/06/28 13:57:44;;;;;;;;;;;21.60;99.90;;;;;;5029987;28;20217;-83
2021/06/28 14:00:10;;;;;;;;;;;21.70;99.90;;;;;;5016579;28;19968;-85
2021/06/28 14:02:36;;;;;;;;;;;21.60;99.90;;;;;;5036694;28;19966;-84
2021/06/28 14:05:01;;;;;;;;;;;21.60;99.90;;;;;;5034448;28;19919;-84
2021/06/28 14:07:27;;;;;;;;;;;21.60;99.90;;;;;;5033563;28;19928;-85
2021/06/28 14:09:52;;;;;;;;;;;21.50;99.90;;;;;;5014939;28;19917;-85
2021/06/28 14:12:18;;;;;;;;;;;21.50;99.90;;;;;;5034916;28;20401;-84
2021/06/28 14:14:43;;;;;;;;;;;21.50;99.90;;;;;;5034494;28;20327;-85
2021/06/28 14:17:09;;;;;;;;;;;21.50;99.90;;;;;;5017668;28;19913;-85